Kezdőlap
METAR-TAF:

METAR-TAF

Repülőterek :

Reykjavík, Izland

földrajzi szélesség: 64-08N, földrajzi hosszúság: 021-54W, magasság: 54 m

Jelenlegi meteorológiai megfigyelések

A jelentés 27 perccel ezelõtt készült, 10:00 UTC
Kelet-északkeleti szél 11 kt
Hőmérséklet 6°C
Páratartalom 75%
Légköri nyomás 1002 hPa
Látótávolság 10 km, vagy több
Szórványos felhőzet 3400 lábon

METAR: BIRK 051000Z 07011KT 9999 SCT034 06/02 Q1002

Idő: 10:27 (10:27 UTC)

Előrejelzés

A jelentés 3 órával és 13 perccel ezelõtt készült, 07:14 UTC
Az előrejelzés 05-én 09 óra UTC és 06-én 09 óra UTC között érvényes
Keleti szél 17 kt
Látótávolság 10 km, vagy több
Szakadozott felhőzet 3000 lábon
05-én 17 óra UTC és 05-én 23 óra UTC között ideiglenes
Kelet-délkeleti szél 25 kt széllökések: 35 kt
Szakadozott felhőzet 1200 lábon
esõ,

TAF: BIRK 050714Z 0509/0609 10017KT 9999 BKN030 TX07/0515Z TN05/0606Z TEMPO 0517/0523 11025G35KT RA BKN012

Meteorológiai megfigyelések és előrejelzések több, mint 4000 repülőtéren (METAR és TAF jelentéseket).

A térképen piros és sárga pontok jelzik az elérhető meteorológiai állomásokat.

Mozgassa az egeret a pont fölött, hogy megjelenjen az állomás neve.

Azután kattintson az időjárási megfigyelések és előrejelzések megtekintéséhez.

A térkép megváltoztatása: kattintson a fekete keresztel jelölt zöld gombra ráközelítéshez, a vonallal jelölt zöld gombra távolításhoz, vagy a zöld nyilakra a szomszédos térképek eléréséhez.


METAR-TAF: